Time;durP1;ratioP1;P1;durP2;ratioP2;P2;SDS_P1;SDS_P2;PMS_P1;PMS_P2;Temp;Humidity;BMP_temperature;BMP_pressure;BME280_temperature;BME280_humidity;BME280_pressure;Samples;Min_cycle;Max_cycle;Signal;HPM_P1;HPM_P2
2023/09/05 00:02:24;;;;;;;0.50;0.50;;;;;;;;;;5093767;28;20077;-80
2023/09/05 00:04:50;;;;;;;0.40;0.40;;;;;;;;;;5093422;28;20395;-79
2023/09/05 00:07:16;;;;;;;0.30;0.30;;;;;;;;;;5093728;28;20024;-79
2023/09/05 00:09:43;;;;;;;0.40;0.40;;;;;;;;;;5092492;28;20463;-79
2023/09/05 00:12:09;;;;;;;0.40;0.40;;;;;;;;;;5093917;28;20027;-79
2023/09/05 00:14:36;;;;;;;0.30;0.30;;;;;;;;;;5092633;28;20543;-79
2023/09/05 00:17:02;;;;;;;0.40;0.40;;;;;;;;;;5092188;28;20134;-78
2023/09/05 00:19:28;;;;;;;0.40;0.40;;;;;;;;;;5092656;28;20467;-80
2023/09/05 00:21:54;;;;;;;0.50;0.50;;;;;;;;;;5093947;28;20031;-81
2023/09/05 00:24:35;;;;;;;0.40;0.40;;;;;;;;;;5092303;28;20020;-78
2023/09/05 00:27:02;;;;;;;0.40;0.40;;;;;;;;;;5094181;28;20532;-78
2023/09/05 00:29:29;;;;;;;0.40;0.40;;;;;;;;;;5092467;28;20069;-78
2023/09/05 00:31:58;;;;;;;0.52;0.52;;;;;;;;;;5092916;28;20076;-79
2023/09/05 00:34:26;;;;;;;0.40;0.40;;;;;;;;;;5096480;28;20078;-80
2023/09/05 00:36:52;;;;;;;0.40;0.40;;;;;;;;;;5098040;28;20034;-79
2023/09/05 00:39:19;;;;;;;0.45;0.45;;;;;;;;;;5096227;28;20028;-80
2023/09/05 00:41:45;;;;;;;0.50;0.50;;;;;;;;;;5097661;28;20032;-80
2023/09/05 00:44:13;;;;;;;0.43;0.43;;;;;;;;;;5097683;28;20052;-78
2023/09/05 00:46:40;;;;;;;0.50;0.50;;;;;;;;;;5096327;28;20467;-78
2023/09/05 00:49:08;;;;;;;0.40;0.40;;;;;;;;;;5096313;28;20027;-79
2023/09/05 00:51:35;;;;;;;0.40;0.40;;;;;;;;;;5095943;28;20024;-79
2023/09/05 00:54:02;;;;;;;0.50;0.50;;;;;;;;;;5096108;28;20024;-78
2023/09/05 00:56:28;;;;;;;0.40;0.40;;;;;;;;;;5099529;28;20073;-79
2023/09/05 00:58:55;;;;;;;0.40;0.40;;;;;;;;;;5100407;28;20523;-78
2023/09/05 01:01:21;;;;;;;0.30;0.30;;;;;;;;;;5095941;28;20035;-78
2023/09/05 01:03:47;;;;;;;0.40;0.40;;;;;;;;;;5096001;28;20047;-80
2023/09/05 01:06:22;;;;;;;0.40;0.40;;;;;;;;;;5096095;28;20123;-81
2023/09/05 01:08:57;;;;;;;0.50;0.50;;;;;;;;;;5096735;28;20081;-78
2023/09/05 01:11:25;;;;;;;0.50;0.50;;;;;;;;;;5098342;28;20024;-78
2023/09/05 01:13:51;;;;;;;0.50;0.50;;;;;;;;;;5096883;28;20020;-79
2023/09/05 01:16:17;;;;;;;0.40;0.40;;;;;;;;;;5096205;28;20078;-80
2023/09/05 01:18:44;;;;;;;0.40;0.40;;;;;;;;;;5102918;28;20023;-79
2023/09/05 01:21:17;;;;;;;0.50;0.50;;;;;;;;;;5110700;28;20389;-79
2023/09/05 01:23:45;;;;;;;0.40;0.40;;;;;;;;;;5111132;28;20058;-79
2023/09/05 01:26:12;;;;;;;0.40;0.40;;;;;;;;;;5101153;28;20422;-80
2023/09/05 01:28:41;;;;;;;0.50;0.50;;;;;;;;;;5099194;28;20023;-78
2023/09/05 01:31:16;;;;;;;0.50;0.50;;;;;;;;;;5095707;28;20028;-80
2023/09/05 01:33:42;;;;;;;0.40;0.40;;;;;;;;;;5097035;28;20024;-79
2023/09/05 01:36:08;;;;;;;0.40;0.40;;;;;;;;;;5096996;28;20051;-80
2023/09/05 01:38:35;;;;;;;0.40;0.40;;;;;;;;;;5095702;28;20439;-78
2023/09/05 01:41:01;;;;;;;0.40;0.40;;;;;;;;;;5098697;28;20024;-79
2023/09/05 01:43:27;;;;;;;0.40;0.40;;;;;;;;;;5095794;28;20118;-78
2023/09/05 01:45:53;;;;;;;0.50;0.50;;;;;;;;;;5096699;28;20016;-80
2023/09/05 01:48:19;;;;;;;0.40;0.40;;;;;;;;;;5097650;28;20368;-80
2023/09/05 01:50:45;;;;;;;0.43;0.43;;;;;;;;;;5099323;28;20020;-79
2023/09/05 01:53:11;;;;;;;0.50;0.50;;;;;;;;;;5098004;28;20517;-79
2023/09/05 01:55:37;;;;;;;0.32;0.32;;;;;;;;;;5097298;28;20016;-79
2023/09/05 01:58:04;;;;;;;0.40;0.40;;;;;;;;;;5099037;28;20464;-78
2023/09/05 02:00:30;;;;;;;0.57;0.57;;;;;;;;;;5096577;28;20020;-80
2023/09/05 02:02:56;;;;;;;0.40;0.40;;;;;;;;;;5094917;28;20383;-79
2023/09/05 02:05:22;;;;;;;0.40;0.40;;;;;;;;;;5094802;28;20062;-79
2023/09/05 02:07:48;;;;;;;0.40;0.40;;;;;;;;;;5094792;28;20398;-79
2023/09/05 02:10:14;;;;;;;0.40;0.40;;;;;;;;;;5094490;28;20024;-79
2023/09/05 02:12:44;;;;;;;0.40;0.40;;;;;;;;;;5095014;28;20388;-78
2023/09/05 02:15:10;;;;;;;0.40;0.40;;;;;;;;;;5094197;28;20062;-78
2023/09/05 02:17:37;;;;;;;0.40;0.40;;;;;;;;;;5094886;28;20027;-79
2023/09/05 02:20:03;;;;;;;0.50;0.50;;;;;;;;;;5094526;28;20035;-79
2023/09/05 02:22:29;;;;;;;0.40;0.40;;;;;;;;;;5094318;28;20073;-78
2023/09/05 02:24:56;;;;;;;0.35;0.35;;;;;;;;;;5094542;28;20027;-79
2023/09/05 02:27:22;;;;;;;0.40;0.40;;;;;;;;;;5094687;28;20110;-78
2023/09/05 02:29:49;;;;;;;0.40;0.40;;;;;;;;;;5095217;28;20024;-78
2023/09/05 02:32:18;;;;;;;0.40;0.40;;;;;;;;;;5097101;28;20367;-80
2023/09/05 02:34:52;;;;;;;0.40;0.40;;;;;;;;;;5094542;28;20455;-80
2023/09/05 02:37:19;;;;;;;0.45;0.45;;;;;;;;;;5094640;28;20020;-80
2023/09/05 02:39:45;;;;;;;0.40;0.40;;;;;;;;;;5095493;28;20019;-79
2023/09/05 02:42:11;;;;;;;0.43;0.43;;;;;;;;;;5094268;28;20035;-78
2023/09/05 02:44:37;;;;;;;0.40;0.40;;;;;;;;;;5095280;28;20056;-79
2023/09/05 02:47:03;;;;;;;0.40;0.40;;;;;;;;;;5096235;28;20024;-77
2023/09/05 02:49:29;;;;;;;0.50;0.50;;;;;;;;;;5094191;28;20027;-81
2023/09/05 02:51:57;;;;;;;0.30;0.30;;;;;;;;;;5093822;28;20020;-79
2023/09/05 02:54:23;;;;;;;0.50;0.50;;;;;;;;;;5094735;28;20031;-79
2023/09/05 02:56:50;;;;;;;0.50;0.50;;;;;;;;;;5093655;28;20117;-79
2023/09/05 02:59:16;;;;;;;0.50;0.50;;;;;;;;;;5094808;28;20024;-80
2023/09/05 03:01:42;;;;;;;0.50;0.50;;;;;;;;;;5093630;28;20459;-78
2023/09/05 03:04:08;;;;;;;0.40;0.40;;;;;;;;;;5093422;28;20023;-79
2023/09/05 03:06:34;;;;;;;0.40;0.40;;;;;;;;;;5093669;28;20020;-79
2023/09/05 03:09:00;;;;;;;0.30;0.30;;;;;;;;;;5093589;28;20020;-80
2023/09/05 03:11:26;;;;;;;0.50;0.50;;;;;;;;;;5094688;28;20024;-79
2023/09/05 03:13:52;;;;;;;0.50;0.50;;;;;;;;;;5094022;28;20406;-80
2023/09/05 03:16:19;;;;;;;0.40;0.40;;;;;;;;;;5094623;28;20048;-80
2023/09/05 03:18:45;;;;;;;0.40;0.40;;;;;;;;;;5093051;28;20028;-80
2023/09/05 03:21:11;;;;;;;0.50;0.50;;;;;;;;;;5093282;28;20036;-80
2023/09/05 03:23:37;;;;;;;0.50;0.50;;;;;;;;;;5093292;28;20352;-79
2023/09/05 03:26:03;;;;;;;0.40;0.40;;;;;;;;;;5092983;28;20020;-80
2023/09/05 03:28:42;;;;;;;0.45;0.45;;;;;;;;;;5094821;28;20024;-80
2023/09/05 03:31:09;;;;;;;0.43;0.43;;;;;;;;;;5093137;28;20118;-79
2023/09/05 03:33:35;;;;;;;0.45;0.45;;;;;;;;;;5092869;28;20102;-80
2023/09/05 03:36:01;;;;;;;0.50;0.50;;;;;;;;;;5093055;28;20387;-80
2023/09/05 03:38:28;;;;;;;0.57;0.57;;;;;;;;;;5093934;28;20042;-78
2023/09/05 03:40:55;;;;;;;0.40;0.40;;;;;;;;;;5092625;28;20024;-80
2023/09/05 03:43:21;;;;;;;0.43;0.43;;;;;;;;;;5093040;28;20024;-82
2023/09/05 03:45:48;;;;;;;0.45;0.45;;;;;;;;;;5093696;28;20105;-80
2023/09/05 03:48:14;;;;;;;0.50;0.50;;;;;;;;;;5093522;28;20016;-81
2023/09/05 03:50:40;;;;;;;0.55;0.55;;;;;;;;;;5093027;28;20034;-79
2023/09/05 03:53:06;;;;;;;0.40;0.40;;;;;;;;;;5092832;28;20025;-80
2023/09/05 03:55:34;;;;;;;0.40;0.40;;;;;;;;;;5092863;28;20024;-83
2023/09/05 03:58:04;;;;;;;0.40;0.40;;;;;;;;;;5092887;28;20016;-79
2023/09/05 04:00:30;;;;;;;0.40;0.40;;;;;;;;;;5092412;28;20071;-78
2023/09/05 04:02:56;;;;;;;0.40;0.40;;;;;;;;;;5093525;28;20028;-80
2023/09/05 04:05:22;;;;;;;0.40;0.40;;;;;;;;;;5092784;28;20023;-79
2023/09/05 04:07:48;;;;;;;0.40;0.40;;;;;;;;;;5092436;28;20055;-80
2023/09/05 04:10:15;;;;;;;0.40;0.40;;;;;;;;;;5092756;28;20032;-79
2023/09/05 04:12:41;;;;;;;0.50;0.50;;;;;;;;;;5092846;28;20523;-78
2023/09/05 04:15:07;;;;;;;0.40;0.40;;;;;;;;;;5092301;28;20020;-78
2023/09/05 04:17:33;;;;;;;0.60;0.60;;;;;;;;;;5093666;28;20024;-78
2023/09/05 04:19:59;;;;;;;0.45;0.45;;;;;;;;;;5092870;28;20036;-79
2023/09/05 04:22:27;;;;;;;0.47;0.47;;;;;;;;;;5092741;28;20024;-78
2023/09/05 04:24:56;;;;;;;0.40;0.40;;;;;;;;;;5093334;28;20020;-80
2023/09/05 04:27:23;;;;;;;0.40;0.40;;;;;;;;;;5094301;28;20024;-79
2023/09/05 04:29:54;;;;;;;0.40;0.40;;;;;;;;;;5093370;28;20476;-78
2023/09/05 04:32:32;;;;;;;0.40;0.40;;;;;;;;;;5095531;28;20073;-79
2023/09/05 04:34:59;;;;;;;0.50;0.50;;;;;;;;;;5093550;28;20513;-79
2023/09/05 04:37:26;;;;;;;0.30;0.30;;;;;;;;;;5094082;28;20115;-79
2023/09/05 04:39:52;;;;;;;0.45;0.45;;;;;;;;;;5092338;28;20148;-78
2023/09/05 04:42:18;;;;;;;0.40;0.40;;;;;;;;;;5092317;28;20544;-78
2023/09/05 04:44:44;;;;;;;0.80;0.80;;;;;;;;;;5092412;28;20452;-79
2023/09/05 04:47:19;;;;;;;0.40;0.40;;;;;;;;;;5093708;28;20021;-79
2023/09/05 04:49:45;;;;;;;0.50;0.50;;;;;;;;;;5092069;28;20372;-79
2023/09/05 04:52:11;;;;;;;0.50;0.50;;;;;;;;;;5092541;28;20020;-79
2023/09/05 04:54:38;;;;;;;0.40;0.40;;;;;;;;;;5093239;28;20100;-79
2023/09/05 04:57:05;;;;;;;0.40;0.40;;;;;;;;;;5092093;28;20038;-79
2023/09/05 04:59:31;;;;;;;0.50;0.50;;;;;;;;;;5092341;28;20028;-79
2023/09/05 05:01:57;;;;;;;0.40;0.40;;;;;;;;;;5092239;28;20040;-80
2023/09/05 05:04:23;;;;;;;0.40;0.40;;;;;;;;;;5092122;28;20494;-78
2023/09/05 05:06:49;;;;;;;0.50;0.50;;;;;;;;;;5092204;28;20031;-81
2023/09/05 05:09:15;;;;;;;0.85;0.60;;;;;;;;;;5093014;28;20403;-79
2023/09/05 05:11:41;;;;;;;0.50;0.50;;;;;;;;;;5091947;28;20032;-80
2023/09/05 05:14:07;;;;;;;0.40;0.40;;;;;;;;;;5093489;28;20376;-79
2023/09/05 05:16:33;;;;;;;0.47;0.47;;;;;;;;;;5093409;28;20052;-79
2023/09/05 05:18:59;;;;;;;0.47;0.47;;;;;;;;;;5094134;28;20482;-80
2023/09/05 05:21:25;;;;;;;0.40;0.40;;;;;;;;;;5095524;28;20149;-79
2023/09/05 05:23:52;;;;;;;0.40;0.40;;;;;;;;;;5097028;28;20055;-78
2023/09/05 05:26:18;;;;;;;0.40;0.40;;;;;;;;;;5095478;28;20094;-79
2023/09/05 05:28:44;;;;;;;0.50;0.50;;;;;;;;;;5096266;28;20365;-79
2023/09/05 05:31:14;;;;;;;0.45;0.45;;;;;;;;;;5096886;28;20028;-79
2023/09/05 05:33:40;;;;;;;0.50;0.50;;;;;;;;;;5097221;28;20028;-79
2023/09/05 05:36:06;;;;;;;0.40;0.40;;;;;;;;;;5098180;28;20107;-81
2023/09/05 05:38:32;;;;;;;0.40;0.40;;;;;;;;;;5095489;28;20081;-79
2023/09/05 05:40:58;;;;;;;0.40;0.40;;;;;;;;;;5097104;28;20116;-79
2023/09/05 05:43:29;;;;;;;0.40;0.40;;;;;;;;;;5096806;28;20150;-80
2023/09/05 05:45:55;;;;;;;0.40;0.40;;;;;;;;;;5096713;28;20043;-80
2023/09/05 05:48:21;;;;;;;0.40;0.40;;;;;;;;;;5097184;28;20028;-79
2023/09/05 05:50:47;;;;;;;0.40;0.40;;;;;;;;;;5097099;28;20030;-79
2023/09/05 05:53:14;;;;;;;0.47;0.47;;;;;;;;;;5094933;28;20027;-78
2023/09/05 05:55:40;;;;;;;0.40;0.40;;;;;;;;;;5096310;28;20027;-79
2023/09/05 05:58:06;;;;;;;0.40;0.40;;;;;;;;;;5095331;28;20022;-79
2023/09/05 06:00:32;;;;;;;0.40;0.40;;;;;;;;;;5094762;28;20032;-79
2023/09/05 06:02:58;;;;;;;0.30;0.30;;;;;;;;;;5097121;28;20138;-80
2023/09/05 06:05:24;;;;;;;0.40;0.40;;;;;;;;;;5097018;28;20024;-78
2023/09/05 06:07:51;;;;;;;0.40;0.40;;;;;;;;;;5095866;28;20372;-81
2023/09/05 06:10:17;;;;;;;0.32;0.32;;;;;;;;;;5096486;28;20422;-80
2023/09/05 06:12:43;;;;;;;0.40;0.40;;;;;;;;;;5095738;28;20481;-80
2023/09/05 06:15:09;;;;;;;0.40;0.40;;;;;;;;;;5095516;28;20082;-81
2023/09/05 06:17:35;;;;;;;0.30;0.30;;;;;;;;;;5096903;28;20020;-79
2023/09/05 06:20:02;;;;;;;0.30;0.30;;;;;;;;;;5095386;28;20115;-79
2023/09/05 06:22:28;;;;;;;0.40;0.40;;;;;;;;;;5095627;28;20024;-81
2023/09/05 06:24:54;;;;;;;0.40;0.40;;;;;;;;;;5097456;28;20495;-79
2023/09/05 06:27:21;;;;;;;0.40;0.40;;;;;;;;;;5097435;28;20024;-78
2023/09/05 06:29:47;;;;;;;0.38;0.38;;;;;;;;;;5095752;28;20040;-80
2023/09/05 06:32:13;;;;;;;0.43;0.43;;;;;;;;;;5096194;28;20517;-81
2023/09/05 06:34:40;;;;;;;0.40;0.40;;;;;;;;;;5095819;28;20024;-81
2023/09/05 06:37:06;;;;;;;0.30;0.30;;;;;;;;;;5095260;28;20032;-80
2023/09/05 06:39:34;;;;;;;0.30;0.30;;;;;;;;;;5096544;28;20028;-79
2023/09/05 06:42:00;;;;;;;0.50;0.50;;;;;;;;;;5095013;28;20078;-79
2023/09/05 06:44:29;;;;;;;0.40;0.40;;;;;;;;;;5096691;28;20032;-79
2023/09/05 06:46:55;;;;;;;0.40;0.40;;;;;;;;;;5095077;28;20023;-80
2023/09/05 06:49:21;;;;;;;0.40;0.40;;;;;;;;;;5099809;28;20027;-79
2023/09/05 06:51:48;;;;;;;0.40;0.40;;;;;;;;;;5100012;28;20024;-79
2023/09/05 06:54:14;;;;;;;0.40;0.40;;;;;;;;;;5095510;28;20097;-78
2023/09/05 06:56:40;;;;;;;0.30;0.30;;;;;;;;;;5095476;28;20097;-79
2023/09/05 06:59:17;;;;;;;0.40;0.40;;;;;;;;;;5094775;28;20023;-77
2023/09/05 07:01:47;;;;;;;0.30;0.30;;;;;;;;;;5095133;28;20028;-78
2023/09/05 07:04:14;;;;;;;0.30;0.30;;;;;;;;;;5095115;28;20059;-78
2023/09/05 07:06:40;;;;;;;0.38;0.38;;;;;;;;;;5094031;28;20470;-77
2023/09/05 07:09:07;;;;;;;0.30;0.30;;;;;;;;;;5094755;28;20115;-77
2023/09/05 07:11:36;;;;;;;0.40;0.40;;;;;;;;;;5094778;28;20081;-81
2023/09/05 07:14:03;;;;;;;0.32;0.32;;;;;;;;;;5095123;28;20402;-80
2023/09/05 07:16:30;;;;;;;0.40;0.40;;;;;;;;;;5094415;28;20398;-80
2023/09/05 07:18:56;;;;;;;0.85;0.60;;;;;;;;;;5094953;28;20415;-79
2023/09/05 07:21:22;;;;;;;0.40;0.40;;;;;;;;;;5095248;28;20028;-80
2023/09/05 07:23:48;;;;;;;0.40;0.40;;;;;;;;;;5094940;28;20028;-79
2023/09/05 07:26:14;;;;;;;0.40;0.40;;;;;;;;;;5093466;28;20028;-80
2023/09/05 07:28:40;;;;;;;0.30;0.30;;;;;;;;;;5093345;28;20112;-80
2023/09/05 07:31:06;;;;;;;0.30;0.30;;;;;;;;;;5093629;28;20024;-78
2023/09/05 07:33:33;;;;;;;0.40;0.40;;;;;;;;;;5093881;28;20469;-79
2023/09/05 07:35:59;;;;;;;0.50;0.50;;;;;;;;;;5094276;28;20024;-80
2023/09/05 07:38:25;;;;;;;0.30;0.30;;;;;;;;;;5094424;28;20020;-78
2023/09/05 07:41:04;;;;;;;0.40;0.40;;;;;;;;;;5093179;28;20031;-80
2023/09/05 07:43:33;;;;;;;0.40;0.40;;;;;;;;;;5093336;28;20024;-80
2023/09/05 07:45:59;;;;;;;0.40;0.40;;;;;;;;;;5093604;28;20020;-79
2023/09/05 07:48:26;;;;;;;0.40;0.40;;;;;;;;;;5094581;28;20072;-81
2023/09/05 07:50:53;;;;;;;0.40;0.40;;;;;;;;;;5094680;28;20503;-77
2023/09/05 07:53:19;;;;;;;0.30;0.30;;;;;;;;;;5093630;28;20060;-80
2023/09/05 07:55:45;;;;;;;0.30;0.30;;;;;;;;;;5093916;28;20096;-78
2023/09/05 07:58:12;;;;;;;0.43;0.43;;;;;;;;;;5093064;28;20027;-79
2023/09/05 08:00:38;;;;;;;0.40;0.40;;;;;;;;;;5094216;28;20135;-78
2023/09/05 08:03:04;;;;;;;0.35;0.35;;;;;;;;;;5093773;28;20021;-77
2023/09/05 08:05:31;;;;;;;0.30;0.30;;;;;;;;;;5093645;28;20023;-78
2023/09/05 08:07:57;;;;;;;0.35;0.35;;;;;;;;;;5092988;28;20047;-80
2023/09/05 08:10:23;;;;;;;0.40;0.40;;;;;;;;;;5110765;28;20035;-80
2023/09/05 08:12:49;;;;;;;0.57;0.57;;;;;;;;;;5110321;28;20482;-80
2023/09/05 08:15:15;;;;;;;0.40;0.40;;;;;;;;;;5110831;28;20434;-81
2023/09/05 08:17:42;;;;;;;0.30;0.30;;;;;;;;;;5089441;28;20054;-79
2023/09/05 08:20:08;;;;;;;0.40;0.40;;;;;;;;;;5090178;28;20024;-80
2023/09/05 08:22:34;;;;;;;0.40;0.40;;;;;;;;;;5075585;28;20056;-84
2023/09/05 08:25:00;;;;;;;0.40;0.40;;;;;;;;;;5091370;28;20020;-80
2023/09/05 08:27:29;;;;;;;0.30;0.30;;;;;;;;;;5090174;28;20024;-80
2023/09/05 08:29:56;;;;;;;0.30;0.30;;;;;;;;;;5089716;28;20044;-82
2023/09/05 08:32:22;;;;;;;0.30;0.30;;;;;;;;;;5089578;28;20472;-80
2023/09/05 08:34:49;;;;;;;0.30;0.30;;;;;;;;;;5089042;28;20056;-80
2023/09/05 08:37:15;;;;;;;0.30;0.30;;;;;;;;;;5087972;28;20362;-79
2023/09/05 08:39:41;;;;;;;0.35;0.35;;;;;;;;;;5088366;28;20520;-79
2023/09/05 08:42:07;;;;;;;0.30;0.30;;;;;;;;;;5088506;28;20021;-80
2023/09/05 08:44:41;;;;;;;0.30;0.30;;;;;;;;;;5088691;28;20016;-80
2023/09/05 08:47:07;;;;;;;0.30;0.30;;;;;;;;;;5088836;28;20024;-79
2023/09/05 08:49:33;;;;;;;0.30;0.30;;;;;;;;;;5089272;28;20090;-82
2023/09/05 08:52:02;;;;;;;0.40;0.40;;;;;;;;;;5089974;28;20025;-81
2023/09/05 08:54:29;;;;;;;0.30;0.30;;;;;;;;;;5076795;28;20048;-79
2023/09/05 08:56:57;;;;;;;0.32;0.32;;;;;;;;;;5093996;28;20017;-80
2023/09/05 08:59:25;;;;;;;0.47;0.47;;;;;;;;;;5094358;28;20024;-80
2023/09/05 09:01:51;;;;;;;0.30;0.30;;;;;;;;;;5092676;28;20095;-80
2023/09/05 09:04:20;;;;;;;0.45;0.45;;;;;;;;;;5092880;28;20032;-79
2023/09/05 09:06:53;;;;;;;0.40;0.40;;;;;;;;;;5077304;28;20042;-79
2023/09/05 09:09:39;;;;;;;0.30;0.30;;;;;;;;;;5092507;28;20031;-79
2023/09/05 09:12:06;;;;;;;0.30;0.30;;;;;;;;;;5093179;28;20472;-81
2023/09/05 09:14:32;;;;;;;0.60;0.60;;;;;;;;;;5092842;28;20044;-80
2023/09/05 09:16:59;;;;;;;0.30;0.30;;;;;;;;;;5076795;28;20048;-81
2023/09/05 09:19:27;;;;;;;0.30;0.30;;;;;;;;;;5092579;28;20464;-82
2023/09/05 09:21:53;;;;;;;0.38;0.38;;;;;;;;;;5092154;28;20024;-80
2023/09/05 09:24:20;;;;;;;0.30;0.30;;;;;;;;;;5092343;28;20427;-81
2023/09/05 09:26:47;;;;;;;0.30;0.30;;;;;;;;;;5093053;28;20377;-80
2023/09/05 09:29:13;;;;;;;0.30;0.30;;;;;;;;;;5077128;28;20028;-80
2023/09/05 09:31:40;;;;;;;0.20;0.20;;;;;;;;;;5093723;28;20028;-80
2023/09/05 09:34:11;;;;;;;0.20;0.20;;;;;;;;;;5092927;28;20024;-81
2023/09/05 09:36:38;;;;;;;0.75;0.60;;;;;;;;;;5092723;28;20095;-81
2023/09/05 09:39:10;;;;;;;0.20;0.20;;;;;;;;;;5093872;28;20471;-80
2023/09/05 09:41:47;;;;;;;0.30;0.30;;;;;;;;;;5093036;28;20052;-80
2023/09/05 09:44:26;;;;;;;0.30;0.30;;;;;;;;;;5092685;28;20051;-79
2023/09/05 09:46:53;;;;;;;0.30;0.30;;;;;;;;;;5077485;28;20035;-79
2023/09/05 09:49:20;;;;;;;0.30;0.30;;;;;;;;;;5093365;28;20044;-83
2023/09/05 09:51:49;;;;;;;0.20;0.20;;;;;;;;;;5093873;28;20468;-78
2023/09/05 09:54:16;;;;;;;0.20;0.20;;;;;;;;;;5102002;28;20371;-79
2023/09/05 09:56:44;;;;;;;0.30;0.30;;;;;;;;;;5093061;28;20025;-79
2023/09/05 09:59:11;;;;;;;0.30;0.30;;;;;;;;;;5091892;28;20025;-80
2023/09/05 10:01:38;;;;;;;0.28;0.28;;;;;;;;;;5092034;28;20387;-82
2023/09/05 10:04:04;;;;;;;0.35;0.35;;;;;;;;;;5091568;28;20021;-79
2023/09/05 10:06:30;;;;;;;0.20;0.20;;;;;;;;;;5091667;28;20056;-82
2023/09/05 10:08:58;;;;;;;0.20;0.20;;;;;;;;;;5091850;28;20473;-81
2023/09/05 10:11:25;;;;;;;0.22;0.22;;;;;;;;;;5091651;28;20098;-80
2023/09/05 10:13:52;;;;;;;0.20;0.20;;;;;;;;;;5091466;28;20020;-81
2023/09/05 10:16:19;;;;;;;0.30;0.30;;;;;;;;;;5091327;28;20048;-81
2023/09/05 10:18:47;;;;;;;0.30;0.30;;;;;;;;;;5091322;28;20115;-81
2023/09/05 10:21:15;;;;;;;0.22;0.22;;;;;;;;;;5076529;28;20039;-84
2023/09/05 10:23:41;;;;;;;0.30;0.30;;;;;;;;;;5092937;28;20396;-81
2023/09/05 10:26:08;;;;;;;0.20;0.20;;;;;;;;;;5091918;28;20024;-81
2023/09/05 10:28:35;;;;;;;0.30;0.30;;;;;;;;;;5091542;28;20059;-81
2023/09/05 10:31:12;;;;;;;0.30;0.30;;;;;;;;;;5075915;28;20099;-80
2023/09/05 10:33:39;;;;;;;0.32;0.32;;;;;;;;;;5091229;28;20476;-80
2023/09/05 10:36:06;;;;;;;0.30;0.30;;;;;;;;;;5075908;28;20020;-78
2023/09/05 10:38:38;;;;;;;0.30;0.30;;;;;;;;;;5091137;28;20115;-78
2023/09/05 10:41:05;;;;;;;0.20;0.20;;;;;;;;;;5091320;28;20031;-79
2023/09/05 10:43:31;;;;;;;0.20;0.20;;;;;;;;;;5091972;28;20021;-79
2023/09/05 10:46:01;;;;;;;0.20;0.20;;;;;;;;;;5093533;28;20021;-76
2023/09/05 10:48:38;;;;;;;0.20;0.20;;;;;;;;;;5090920;28;20020;-77
2023/09/05 10:51:08;;;;;;;0.30;0.30;;;;;;;;;;5091516;28;20363;-77
2023/09/05 10:53:38;;;;;;;0.20;0.20;;;;;;;;;;5090262;28;20396;-79
2023/09/05 10:56:04;;;;;;;0.20;0.20;;;;;;;;;;5091825;28;20024;-79
2023/09/05 10:58:47;;;;;;;0.30;0.30;;;;;;;;;;5092270;28;20027;-79
2023/09/05 11:01:31;;;;;;;0.25;0.25;;;;;;;;;;5090976;28;20028;-79
2023/09/05 11:04:07;;;;;;;0.30;0.30;;;;;;;;;;5074952;28;20564;-79
2023/09/05 11:06:37;;;;;;;0.20;0.20;;;;;;;;;;5088771;28;20051;-80
2023/09/05 11:09:05;;;;;;;0.20;0.20;;;;;;;;;;5088836;28;20487;-78
2023/09/05 11:11:31;;;;;;;0.20;0.20;;;;;;;;;;5090399;28;20256;-78
2023/09/05 11:13:58;;;;;;;0.20;0.20;;;;;;;;;;5074262;28;20048;-79
2023/09/05 11:16:24;;;;;;;0.20;0.20;;;;;;;;;;5089727;28;20066;-81
2023/09/05 11:18:55;;;;;;;0.20;0.20;;;;;;;;;;5090146;28;20044;-80
2023/09/05 11:21:25;;;;;;;0.20;0.20;;;;;;;;;;5088588;28;20435;-80
2023/09/05 11:23:52;;;;;;;0.20;0.20;;;;;;;;;;5090055;28;20032;-79
2023/09/05 11:26:19;;;;;;;0.22;0.22;;;;;;;;;;5090076;28;20029;-80
2023/09/05 11:28:48;;;;;;;0.20;0.20;;;;;;;;;;5090059;28;20115;-79
2023/09/05 11:31:15;;;;;;;0.20;0.20;;;;;;;;;;5089942;28;20077;-79
2023/09/05 11:33:41;;;;;;;0.20;0.20;;;;;;;;;;5089835;28;20032;-78
2023/09/05 11:36:08;;;;;;;0.20;0.20;;;717.20;2201.60;;;;;;5089464;28;20021;-78
2023/09/05 11:38:49;;;;;;;0.30;0.30;;;717.20;2201.60;;;;;;5073997;28;20496;-79
2023/09/05 11:41:17;;;;;;;0.20;0.20;;;;;;;;;;5073648;28;20415;-79
2023/09/05 11:43:47;;;;;;;0.30;0.30;;;;;;;;;;5077961;28;20025;-80
2023/09/05 11:46:14;;;;;;;0.20;0.20;;;;;;;;;;5091104;28;20399;-82
2023/09/05 11:48:46;;;;;;;0.20;0.20;;;742.40;2176.00;;;;;;5090091;28;20023;-80
2023/09/05 11:51:14;;;;;;;;;;;;;;;;;;5074053;28;20368;-79
2023/09/05 11:53:41;;;;;;;0.20;0.20;;;;;;;;;;5074689;28;19954;-79
2023/09/05 11:56:07;;;;;;;0.20;0.20;;;;;;;;;;5091705;28;20487;-79
2023/09/05 11:58:34;;;;;;;0.30;0.30;;;;;;;;;;5090819;28;20376;-80
2023/09/05 12:01:01;;;;;;;0.20;0.20;;;;;;;;;;5100762;28;20020;-82
2023/09/05 12:03:31;;;;;;;0.20;0.20;;;;;;;;;;5094052;28;20028;-80
2023/09/05 12:05:57;;;;;;;0.32;0.30;;;;;;;;;;5109700;28;20078;-80
2023/09/05 12:08:23;;;;;;;0.22;0.22;;;;;;;;;;5110925;28;20388;-81
2023/09/05 12:10:52;;;;;;;0.20;0.20;;;;;;;;;;5106881;28;20443;-81
2023/09/05 12:13:36;;;;;;;0.20;0.20;;;;;;;;;;5093050;28;20016;-81
2023/09/05 12:16:03;;;;;;;0.20;0.20;;;768.20;2022.40;;;;;;5093139;28;20052;-81
2023/09/05 12:18:28;;;;;;;0.20;0.20;;;768.20;2022.40;;;;;;5095741;28;20024;-81
2023/09/05 12:21:00;;;;;;;0.10;0.10;;;768.40;2073.60;;;;;;5096540;28;20542;-81
2023/09/05 12:23:29;;;;;;;0.30;0.30;;;768.10;1971.20;;;;;;5093783;28;20032;-83
2023/09/05 12:25:56;;;;;;;0.10;0.10;;;743.30;1996.80;;;;;;5092770;28;20030;-82
2023/09/05 12:28:23;;;;;;;0.20;0.20;;;;;;;;;;5092258;28;20083;-79
2023/09/05 12:30:50;;;;;;;0.20;0.20;;;717.70;2048.00;;;;;;5096762;28;20028;-79
2023/09/05 12:33:17;;;;;;;0.20;0.20;;;717.40;2073.60;;;;;;5097683;28;20032;-78
2023/09/05 12:55:26;;;;;;;0.20;0.20;;;742.50;2048.00;;;;;;5071119;28;20753;-78
2023/09/05 12:57:53;;;;;;;0.20;0.20;;;;;;;;;;5049389;28;20061;-80
2023/09/05 13:00:19;;;;;;;0.30;0.30;;;;;;;;;;5050550;28;20013;-78
2023/09/05 13:02:45;;;;;;;0.20;0.20;;;768.10;2022.40;;;;;;5049562;28;20033;-79
2023/09/05 13:05:12;;;;;;;0.20;0.20;;;743.30;1996.80;;;;;;5049265;28;20120;-82
2023/09/05 13:07:38;;;;;;;0.20;0.20;;;768.40;1996.80;;;;;;5033099;28;20437;-80
2023/09/05 13:10:04;;;;;;;0.22;0.22;;;;;;;;;;5050194;28;20374;-81
2023/09/05 13:12:30;;;;;;;0.20;0.20;;;;;;;;;;5049318;28;20382;-78
2023/09/05 13:14:57;;;;;;;0.20;0.20;;;;;;;;;;5049449;28;20075;-78
2023/09/05 13:17:23;;;;;;;0.20;0.20;;;;;;;;;;5049329;28;20024;-80
2023/09/05 13:19:49;;;;;;;0.20;0.20;;;;;;;;;;5049266;28;20136;-78
2023/09/05 13:22:17;;;;;;;0.30;0.30;;;;;;;;;;5050594;28;20053;-78
2023/09/05 13:24:43;;;;;;;0.22;0.22;;;;;;;;;;5050374;28;20104;-77
2023/09/05 13:27:09;;;;;;;0.20;0.20;;;;;;;;;;5048881;28;20385;-77
2023/09/05 13:29:36;;;;;;;0.20;0.20;;;;;;;;;;5050317;28;20025;-78
2023/09/05 13:32:07;;;;;;;0.20;0.20;;;;;;;;;;5049115;28;20014;-80
2023/09/05 13:34:33;;;;;;;0.20;0.20;;;;;;;;;;5048531;28;20025;-81
2023/09/05 13:36:59;;;;;;;0.20;0.20;;;;;;;;;;5049092;28;20025;-80
2023/09/05 13:39:26;;;;;;;0.20;0.20;;;;;;;;;;5050559;28;20104;-79
2023/09/05 13:41:53;;;;;;;0.30;0.30;;;;;;;;;;5048548;28;20371;-78
2023/09/05 13:44:19;;;;;;;0.20;0.20;;;;;;;;;;5048785;28;20025;-80
2023/09/05 13:46:47;;;;;;;0.20;0.20;;;;;;;;;;5048675;28;20041;-79
2023/09/05 13:49:13;;;;;;;0.25;0.25;;;;;;;;;;5048904;28;20040;-79
2023/09/05 13:51:39;;;;;;;0.28;0.28;;;;;;;;;;5049433;28;20053;-78
2023/09/05 13:54:08;;;;;;;0.20;0.20;;;;;;;;;;5048991;28;20468;-79
2023/09/05 13:56:34;;;;;;;0.30;0.30;;;;;;;;;;5035396;28;20021;-78
2023/09/05 13:59:01;;;;;;;0.50;0.25;;;;;;;;;;5035748;28;20026;-79
2023/09/05 14:01:27;;;;;;;0.20;0.20;;;;;;;;;;5036499;28;20053;-81
2023/09/05 14:03:54;;;;;;;0.20;0.20;;;;;;;;;;5035272;28;20029;-78
2023/09/05 14:06:20;;;;;;;0.20;0.20;;;;;;;;;;5036387;28;20084;-79
2023/09/05 14:08:46;;;;;;;0.20;0.20;;;;;;;;;;5036868;28;20029;-82
2023/09/05 14:11:13;;;;;;;0.20;0.20;;;;;;;;;;5036226;28;20108;-81
2023/09/05 14:13:39;;;;;;;0.20;0.20;;;;;;;;;;5035566;28;20029;-78
2023/09/05 14:16:05;;;;;;;0.20;0.20;;;;;;;;;;5038049;28;20029;-78
2023/09/05 14:18:32;;;;;;;0.30;0.30;;;;;;;;;;5038284;28;20026;-79
2023/09/05 14:20:58;;;;;;;0.20;0.20;;;;;;;;;;5037310;28;20401;-79
2023/09/05 14:23:24;;;;;;;0.20;0.20;;;;;;;;;;5036212;28;20021;-81
2023/09/05 14:25:50;;;;;;;0.20;0.20;;;;;;;;;;5037805;28;20022;-80
2023/09/05 14:28:20;;;;;;;0.20;0.20;;;;;;;;;;5035581;28;20080;-79
2023/09/05 14:30:47;;;;;;;0.20;0.20;;;;;;;;;;5036030;28;20029;-79
2023/09/05 14:33:13;;;;;;;0.20;0.20;;;;;;;;;;5035109;28;20116;-81
2023/09/05 14:35:39;;;;;;;0.20;0.20;;;;;;;;;;5035864;28;20097;-78
2023/09/05 14:38:05;;;;;;;0.30;0.30;;;;;;;;;;5035168;28;20037;-79
2023/09/05 14:40:31;;;;;;;0.20;0.20;;;;;;;;;;5036564;28;20022;-80
2023/09/05 14:42:57;;;;;;;0.20;0.20;;;;;;;;;;5034792;28;20037;-82
2023/09/05 14:45:23;;;;;;;0.20;0.20;;;;;;;;;;5034300;28;20075;-79
2023/09/05 14:47:50;;;;;;;0.30;0.30;;;;;;;;;;5034992;28;20529;-79
2023/09/05 14:50:16;;;;;;;0.30;0.30;;;;;;;;;;5032770;28;20026;-80
2023/09/05 14:52:43;;;;;;;0.20;0.20;;;;;;;;;;5013956;28;20018;-77
2023/09/05 14:55:10;;;;;;;0.40;0.40;;;;;;;;;;5037368;28;20045;-78
2023/09/05 14:57:39;;;;;;;0.28;0.28;;;;;;;;;;5027174;28;20025;-78